Here is the Quick Look data you requested

The Data originates at the National Weather Service, and is made available here by the UAlbany Department of Atmospheric and Environmental Sciences

Surface Observations

KAFN 171552Z AUTO 00000KT 10SM CLR 09/M02 A3026 RMK AO2 SLP260 T00891022=
KASH 171556Z 32006KT 10SM CLR 10/M02 A3029 RMK AO2 SLP270 T01001017=
KBML 171552Z AUTO VRB05KT 10SM CLR 09/M03 A3022 RMK AO2 SLP245 T00891033=
KCON 171551Z AUTO VRB04KT 10SM 11/M01 A3027 RMK AO2 SLP254 T01061011 PWINO $=
KCWN 171558Z AUTO 11006KT 10SM CLR 17/M12 A3030 RMK AO2 SLP100 T01661120 $=
KDAW 171551Z AUTO VRB04KT 10SM CLR 11/M01 A3026 RMK AO2 SLP246 T01061011=
KEEN 171556Z AUTO 00000KT 10SM CLR 11/M02 A3029 RMK AO2 SLP279 T01111017=
KHIE 171552Z AUTO 35003KT 10SM CLR 08/M02 A3025 RMK AO2 SLP252 T00781022=
KLCI 171556Z AUTO 22006KT 10SM CLR 09/M03 A3026 RMK AO2 SLP267 T00891028=
KLEB 171553Z VRB03KT 10SM CLR 09/M02 A3027 RMK AO2 SLP253 T00941017=
KMHT 171553Z 32004KT 10SM CLR 11/M02 A3027 RMK AO2 SLP265 T01061022=
KMWN 171547Z 31024KT 100SM FEW130 FEW180 M05/M11 RMK=
KPSM 171556Z 30003KT 10SM CLR 11/M01 A3027 RMK AO2A SLP253 T01081010 CHINO
 RWY16 $=